sensor_id;sensor_type;location;lat;lon;timestamp;P1;durP1;ratioP1;P2;durP2;ratioP2
51238;SDS011;38154;47.548;18.828;2022-12-18T00:02:02;7.50;;;3.37;;
51238;SDS011;38154;47.548;18.828;2022-12-18T00:04:29;18.08;;;6.10;;
51238;SDS011;38154;47.548;18.828;2022-12-18T00:06:55;19.83;;;7.87;;
51238;SDS011;38154;47.548;18.828;2022-12-18T00:09:21;21.73;;;6.67;;
51238;SDS011;38154;47.548;18.828;2022-12-18T00:11:47;8.77;;;6.55;;
51238;SDS011;38154;47.548;18.828;2022-12-18T00:14:13;15.70;;;8.45;;
51238;SDS011;38154;47.548;18.828;2022-12-18T00:16:39;13.13;;;6.60;;
51238;SDS011;38154;47.548;18.828;2022-12-18T00:19:06;9.05;;;5.90;;
51238;SDS011;38154;47.548;18.828;2022-12-18T00:23:59;17.73;;;5.87;;
51238;SDS011;38154;47.548;18.828;2022-12-18T00:26:26;11.00;;;6.30;;
51238;SDS011;38154;47.548;18.828;2022-12-18T00:29:04;8.15;;;4.87;;
51238;SDS011;38154;47.548;18.828;2022-12-18T00:31:36;15.70;;;6.05;;
51238;SDS011;38154;47.548;18.828;2022-12-18T00:36:30;19.73;;;6.97;;
51238;SDS011;38154;47.548;18.828;2022-12-18T00:38:59;14.55;;;8.07;;
51238;SDS011;38154;47.548;18.828;2022-12-18T00:41:26;10.63;;;5.15;;
51238;SDS011;38154;47.548;18.828;2022-12-18T00:44:12;14.95;;;6.60;;
51238;SDS011;38154;47.548;18.828;2022-12-18T00:46:40;15.55;;;7.57;;
51238;SDS011;38154;47.548;18.828;2022-12-18T00:49:07;24.33;;;6.45;;
51238;SDS011;38154;47.548;18.828;2022-12-18T00:51:33;15.40;;;4.30;;
51238;SDS011;38154;47.548;18.828;2022-12-18T00:53:59;18.73;;;6.93;;
51238;SDS011;38154;47.548;18.828;2022-12-18T00:56:25;10.73;;;5.93;;
51238;SDS011;38154;47.548;18.828;2022-12-18T00:58:51;15.82;;;5.78;;
51238;SDS011;38154;47.548;18.828;2022-12-18T01:01:17;13.35;;;6.22;;
51238;SDS011;38154;47.548;18.828;2022-12-18T01:03:43;18.87;;;8.80;;
51238;SDS011;38154;47.548;18.828;2022-12-18T01:06:11;19.83;;;6.60;;
51238;SDS011;38154;47.548;18.828;2022-12-18T01:08:38;9.35;;;6.55;;
51238;SDS011;38154;47.548;18.828;2022-12-18T01:11:08;12.73;;;7.75;;
51238;SDS011;38154;47.548;18.828;2022-12-18T01:13:38;21.55;;;9.02;;
51238;SDS011;38154;47.548;18.828;2022-12-18T01:16:05;12.05;;;8.23;;
51238;SDS011;38154;47.548;18.828;2022-12-18T01:18:31;22.55;;;8.93;;
51238;SDS011;38154;47.548;18.828;2022-12-18T01:20:57;17.70;;;5.43;;
51238;SDS011;38154;47.548;18.828;2022-12-18T01:23:23;10.82;;;5.90;;
51238;SDS011;38154;47.548;18.828;2022-12-18T01:25:49;19.87;;;9.05;;
51238;SDS011;38154;47.548;18.828;2022-12-18T01:28:14;14.93;;;7.68;;
51238;SDS011;38154;47.548;18.828;2022-12-18T01:30:40;20.37;;;5.65;;
51238;SDS011;38154;47.548;18.828;2022-12-18T01:33:06;17.02;;;8.57;;
51238;SDS011;38154;47.548;18.828;2022-12-18T01:35:32;10.63;;;5.65;;
51238;SDS011;38154;47.548;18.828;2022-12-18T01:37:58;13.85;;;7.18;;
51238;SDS011;38154;47.548;18.828;2022-12-18T01:40:24;19.30;;;8.40;;
51238;SDS011;38154;47.548;18.828;2022-12-18T01:42:53;20.00;;;6.90;;
51238;SDS011;38154;47.548;18.828;2022-12-18T01:45:23;9.73;;;5.75;;
51238;SDS011;38154;47.548;18.828;2022-12-18T01:50:47;21.65;;;8.50;;
51238;SDS011;38154;47.548;18.828;2022-12-18T01:53:14;14.13;;;6.12;;
51238;SDS011;38154;47.548;18.828;2022-12-18T01:55:47;16.15;;;7.47;;
51238;SDS011;38154;47.548;18.828;2022-12-18T01:58:15;15.82;;;3.72;;
51238;SDS011;38154;47.548;18.828;2022-12-18T02:00:42;14.55;;;7.70;;
51238;SDS011;38154;47.548;18.828;2022-12-18T02:03:08;17.27;;;7.50;;
51238;SDS011;38154;47.548;18.828;2022-12-18T02:05:47;11.43;;;6.57;;
51238;SDS011;38154;47.548;18.828;2022-12-18T02:08:22;12.95;;;6.37;;
51238;SDS011;38154;47.548;18.828;2022-12-18T02:18:41;18.12;;;5.97;;
51238;SDS011;38154;47.548;18.828;2022-12-18T02:23:47;21.12;;;6.62;;
51238;SDS011;38154;47.548;18.828;2022-12-18T02:31:38;20.95;;;8.18;;
51238;SDS011;38154;47.548;18.828;2022-12-18T02:34:08;11.45;;;5.93;;
51238;SDS011;38154;47.548;18.828;2022-12-18T02:36:37;14.52;;;6.18;;
51238;SDS011;38154;47.548;18.828;2022-12-18T02:39:06;16.42;;;6.95;;
51238;SDS011;38154;47.548;18.828;2022-12-18T02:41:35;18.15;;;7.95;;
51238;SDS011;38154;47.548;18.828;2022-12-18T02:44:06;17.83;;;6.10;;
51238;SDS011;38154;47.548;18.828;2022-12-18T02:46:38;15.65;;;6.28;;
51238;SDS011;38154;47.548;18.828;2022-12-18T02:51:48;11.25;;;6.20;;
51238;SDS011;38154;47.548;18.828;2022-12-18T02:56:56;11.30;;;6.22;;
51238;SDS011;38154;47.548;18.828;2022-12-18T02:59:31;13.05;;;6.45;;
51238;SDS011;38154;47.548;18.828;2022-12-18T03:02:11;14.18;;;7.00;;
51238;SDS011;38154;47.548;18.828;2022-12-18T03:05:01;27.98;;;8.15;;
51238;SDS011;38154;47.548;18.828;2022-12-18T03:07:59;25.77;;;6.75;;
51238;SDS011;38154;47.548;18.828;2022-12-18T03:10:32;22.23;;;6.22;;
51238;SDS011;38154;47.548;18.828;2022-12-18T03:13:04;13.10;;;6.30;;
51238;SDS011;38154;47.548;18.828;2022-12-18T03:15:45;20.23;;;8.20;;
51238;SDS011;38154;47.548;18.828;2022-12-18T03:18:16;14.50;;;6.68;;
51238;SDS011;38154;47.548;18.828;2022-12-18T03:20:46;11.60;;;6.12;;
51238;SDS011;38154;47.548;18.828;2022-12-18T03:23:19;23.95;;;9.43;;
51238;SDS011;38154;47.548;18.828;2022-12-18T03:25:48;20.55;;;7.60;;
51238;SDS011;38154;47.548;18.828;2022-12-18T03:28:20;22.20;;;10.55;;
51238;SDS011;38154;47.548;18.828;2022-12-18T03:30:48;18.58;;;7.65;;
51238;SDS011;38154;47.548;18.828;2022-12-18T03:35:58;15.00;;;6.18;;
51238;SDS011;38154;47.548;18.828;2022-12-18T03:38:24;21.52;;;9.35;;
51238;SDS011;38154;47.548;18.828;2022-12-18T03:41:00;15.40;;;6.97;;
51238;SDS011;38154;47.548;18.828;2022-12-18T03:43:49;12.35;;;5.80;;
51238;SDS011;38154;47.548;18.828;2022-12-18T03:51:40;18.37;;;6.97;;
51238;SDS011;38154;47.548;18.828;2022-12-18T03:54:14;14.80;;;5.43;;
51238;SDS011;38154;47.548;18.828;2022-12-18T03:56:42;14.63;;;8.02;;
51238;SDS011;38154;47.548;18.828;2022-12-18T03:59:12;10.85;;;5.95;;
51238;SDS011;38154;47.548;18.828;2022-12-18T04:01:41;11.18;;;6.37;;
51238;SDS011;38154;47.548;18.828;2022-12-18T04:04:12;18.20;;;6.00;;
51238;SDS011;38154;47.548;18.828;2022-12-18T04:06:39;25.17;;;6.00;;
51238;SDS011;38154;47.548;18.828;2022-12-18T04:09:07;13.13;;;5.78;;
51238;SDS011;38154;47.548;18.828;2022-12-18T04:11:33;14.52;;;6.22;;
51238;SDS011;38154;47.548;18.828;2022-12-18T04:13:59;15.27;;;8.40;;
51238;SDS011;38154;47.548;18.828;2022-12-18T04:16:25;16.05;;;7.53;;
51238;SDS011;38154;47.548;18.828;2022-12-18T04:21:18;13.45;;;6.55;;
51238;SDS011;38154;47.548;18.828;2022-12-18T04:23:44;24.67;;;7.80;;
51238;SDS011;38154;47.548;18.828;2022-12-18T04:26:10;10.38;;;5.10;;
51238;SDS011;38154;47.548;18.828;2022-12-18T04:28:37;9.20;;;5.33;;
51238;SDS011;38154;47.548;18.828;2022-12-18T04:31:02;11.57;;;4.70;;
51238;SDS011;38154;47.548;18.828;2022-12-18T04:33:28;14.07;;;5.62;;
51238;SDS011;38154;47.548;18.828;2022-12-18T04:35:55;11.70;;;6.32;;
51238;SDS011;38154;47.548;18.828;2022-12-18T04:38:21;7.32;;;3.87;;
51238;SDS011;38154;47.548;18.828;2022-12-18T04:40:47;5.60;;;5.03;;
51238;SDS011;38154;47.548;18.828;2022-12-18T04:43:13;14.00;;;6.22;;
51238;SDS011;38154;47.548;18.828;2022-12-18T04:45:39;12.52;;;4.90;;
51238;SDS011;38154;47.548;18.828;2022-12-18T04:48:05;13.93;;;4.62;;
51238;SDS011;38154;47.548;18.828;2022-12-18T04:50:30;8.02;;;3.53;;
51238;SDS011;38154;47.548;18.828;2022-12-18T04:52:57;12.60;;;5.50;;
51238;SDS011;38154;47.548;18.828;2022-12-18T04:55:23;5.15;;;3.47;;
51238;SDS011;38154;47.548;18.828;2022-12-18T04:57:48;8.07;;;4.18;;
51238;SDS011;38154;47.548;18.828;2022-12-18T05:00:14;5.90;;;3.87;;
51238;SDS011;38154;47.548;18.828;2022-12-18T05:02:41;5.95;;;3.90;;
51238;SDS011;38154;47.548;18.828;2022-12-18T05:05:07;10.77;;;5.70;;
51238;SDS011;38154;47.548;18.828;2022-12-18T05:07:33;11.57;;;5.17;;
51238;SDS011;38154;47.548;18.828;2022-12-18T05:09:59;6.82;;;4.72;;
51238;SDS011;38154;47.548;18.828;2022-12-18T05:12:25;11.77;;;5.18;;
51238;SDS011;38154;47.548;18.828;2022-12-18T05:14:51;8.65;;;5.93;;
51238;SDS011;38154;47.548;18.828;2022-12-18T05:17:17;9.18;;;5.70;;
51238;SDS011;38154;47.548;18.828;2022-12-18T05:19:43;12.70;;;3.87;;
51238;SDS011;38154;47.548;18.828;2022-12-18T05:22:10;13.15;;;6.65;;
51238;SDS011;38154;47.548;18.828;2022-12-18T05:27:01;8.80;;;3.72;;
51238;SDS011;38154;47.548;18.828;2022-12-18T05:29:27;8.93;;;3.87;;
51238;SDS011;38154;47.548;18.828;2022-12-18T05:31:53;4.60;;;3.58;;
51238;SDS011;38154;47.548;18.828;2022-12-18T05:34:19;7.47;;;4.57;;
51238;SDS011;38154;47.548;18.828;2022-12-18T05:36:45;12.13;;;4.72;;
51238;SDS011;38154;47.548;18.828;2022-12-18T05:39:11;10.82;;;4.60;;
51238;SDS011;38154;47.548;18.828;2022-12-18T05:41:37;4.35;;;3.12;;
51238;SDS011;38154;47.548;18.828;2022-12-18T05:44:02;12.25;;;5.32;;
51238;SDS011;38154;47.548;18.828;2022-12-18T05:46:28;15.57;;;5.65;;
51238;SDS011;38154;47.548;18.828;2022-12-18T05:48:54;11.32;;;4.65;;
51238;SDS011;38154;47.548;18.828;2022-12-18T05:51:21;5.30;;;3.70;;
51238;SDS011;38154;47.548;18.828;2022-12-18T05:53:47;15.38;;;3.78;;
51238;SDS011;38154;47.548;18.828;2022-12-18T05:56:15;8.30;;;4.05;;
51238;SDS011;38154;47.548;18.828;2022-12-18T05:58:43;12.18;;;3.35;;
51238;SDS011;38154;47.548;18.828;2022-12-18T06:01:20;13.65;;;5.18;;
51238;SDS011;38154;47.548;18.828;2022-12-18T06:03:48;6.68;;;5.15;;
51238;SDS011;38154;47.548;18.828;2022-12-18T06:06:19;8.25;;;2.75;;
51238;SDS011;38154;47.548;18.828;2022-12-18T06:08:48;5.57;;;4.25;;
51238;SDS011;38154;47.548;18.828;2022-12-18T06:11:16;3.78;;;3.55;;
51238;SDS011;38154;47.548;18.828;2022-12-18T06:13:44;8.93;;;3.53;;
51238;SDS011;38154;47.548;18.828;2022-12-18T06:16:10;13.00;;;5.43;;
51238;SDS011;38154;47.548;18.828;2022-12-18T06:18:35;15.45;;;4.65;;
51238;SDS011;38154;47.548;18.828;2022-12-18T06:21:01;5.43;;;3.78;;
51238;SDS011;38154;47.548;18.828;2022-12-18T06:23:27;7.00;;;4.53;;
51238;SDS011;38154;47.548;18.828;2022-12-18T06:25:53;14.17;;;5.43;;
51238;SDS011;38154;47.548;18.828;2022-12-18T06:28:20;11.30;;;5.15;;
51238;SDS011;38154;47.548;18.828;2022-12-18T06:30:48;8.45;;;3.65;;
51238;SDS011;38154;47.548;18.828;2022-12-18T06:33:15;10.25;;;3.37;;
51238;SDS011;38154;47.548;18.828;2022-12-18T06:35:41;6.07;;;3.70;;
51238;SDS011;38154;47.548;18.828;2022-12-18T06:38:07;7.57;;;4.55;;
51238;SDS011;38154;47.548;18.828;2022-12-18T06:40:33;4.90;;;3.97;;
51238;SDS011;38154;47.548;18.828;2022-12-18T06:42:59;16.95;;;4.82;;
51238;SDS011;38154;47.548;18.828;2022-12-18T06:45:25;6.70;;;4.50;;
51238;SDS011;38154;47.548;18.828;2022-12-18T06:47:51;4.95;;;3.87;;
51238;SDS011;38154;47.548;18.828;2022-12-18T06:50:17;8.75;;;6.03;;
51238;SDS011;38154;47.548;18.828;2022-12-18T06:52:43;4.60;;;3.45;;
51238;SDS011;38154;47.548;18.828;2022-12-18T06:55:10;9.77;;;2.83;;
51238;SDS011;38154;47.548;18.828;2022-12-18T06:57:36;5.40;;;3.70;;
51238;SDS011;38154;47.548;18.828;2022-12-18T07:00:05;11.40;;;6.53;;
51238;SDS011;38154;47.548;18.828;2022-12-18T07:02:32;9.20;;;3.80;;
51238;SDS011;38154;47.548;18.828;2022-12-18T07:04:58;10.85;;;4.53;;
51238;SDS011;38154;47.548;18.828;2022-12-18T07:07:25;5.25;;;3.47;;
51238;SDS011;38154;47.548;18.828;2022-12-18T07:09:51;3.03;;;2.37;;
51238;SDS011;38154;47.548;18.828;2022-12-18T07:12:16;17.33;;;6.55;;
51238;SDS011;38154;47.548;18.828;2022-12-18T07:14:43;5.82;;;3.33;;
51238;SDS011;38154;47.548;18.828;2022-12-18T07:17:09;12.00;;;4.57;;
51238;SDS011;38154;47.548;18.828;2022-12-18T07:19:35;3.00;;;2.47;;
51238;SDS011;38154;47.548;18.828;2022-12-18T07:22:01;8.90;;;3.33;;
51238;SDS011;38154;47.548;18.828;2022-12-18T07:24:27;8.85;;;4.30;;
51238;SDS011;38154;47.548;18.828;2022-12-18T07:26:53;14.45;;;5.55;;
51238;SDS011;38154;47.548;18.828;2022-12-18T07:29:19;11.65;;;3.92;;
51238;SDS011;38154;47.548;18.828;2022-12-18T07:31:45;12.60;;;5.17;;
51238;SDS011;38154;47.548;18.828;2022-12-18T07:34:12;10.95;;;5.45;;
51238;SDS011;38154;47.548;18.828;2022-12-18T07:36:39;11.15;;;7.15;;
51238;SDS011;38154;47.548;18.828;2022-12-18T07:39:05;15.35;;;8.70;;
51238;SDS011;38154;47.548;18.828;2022-12-18T07:41:31;14.87;;;5.60;;
51238;SDS011;38154;47.548;18.828;2022-12-18T07:43:57;28.95;;;7.87;;
51238;SDS011;38154;47.548;18.828;2022-12-18T07:46:22;25.35;;;8.57;;
51238;SDS011;38154;47.548;18.828;2022-12-18T07:48:48;13.35;;;7.12;;
51238;SDS011;38154;47.548;18.828;2022-12-18T07:51:14;20.88;;;8.40;;
51238;SDS011;38154;47.548;18.828;2022-12-18T07:53:40;20.55;;;9.52;;
51238;SDS011;38154;47.548;18.828;2022-12-18T07:56:08;18.77;;;9.82;;
51238;SDS011;38154;47.548;18.828;2022-12-18T07:58:36;26.98;;;9.93;;
51238;SDS011;38154;47.548;18.828;2022-12-18T08:01:05;29.30;;;10.85;;
51238;SDS011;38154;47.548;18.828;2022-12-18T08:03:32;29.08;;;12.13;;
51238;SDS011;38154;47.548;18.828;2022-12-18T08:06:01;26.35;;;11.88;;
51238;SDS011;38154;47.548;18.828;2022-12-18T08:08:29;32.88;;;15.52;;
51238;SDS011;38154;47.548;18.828;2022-12-18T08:10:56;25.85;;;10.98;;
51238;SDS011;38154;47.548;18.828;2022-12-18T08:18:34;21.35;;;9.57;;
51238;SDS011;38154;47.548;18.828;2022-12-18T08:21:11;22.70;;;8.07;;
51238;SDS011;38154;47.548;18.828;2022-12-18T08:23:38;29.77;;;10.18;;
51238;SDS011;38154;47.548;18.828;2022-12-18T08:26:05;31.05;;;10.30;;
51238;SDS011;38154;47.548;18.828;2022-12-18T08:28:31;29.52;;;10.75;;
51238;SDS011;38154;47.548;18.828;2022-12-18T08:30:57;24.58;;;11.98;;
51238;SDS011;38154;47.548;18.828;2022-12-18T08:33:23;22.25;;;11.30;;
51238;SDS011;38154;47.548;18.828;2022-12-18T08:35:49;26.92;;;13.65;;
51238;SDS011;38154;47.548;18.828;2022-12-18T08:38:15;24.97;;;10.50;;
51238;SDS011;38154;47.548;18.828;2022-12-18T08:40:41;26.20;;;10.00;;
51238;SDS011;38154;47.548;18.828;2022-12-18T08:43:07;22.07;;;9.47;;
51238;SDS011;38154;47.548;18.828;2022-12-18T08:45:53;29.98;;;10.70;;
51238;SDS011;38154;47.548;18.828;2022-12-18T08:48:19;22.67;;;9.03;;
51238;SDS011;38154;47.548;18.828;2022-12-18T08:50:57;21.63;;;10.27;;
51238;SDS011;38154;47.548;18.828;2022-12-18T08:53:24;20.62;;;8.35;;
51238;SDS011;38154;47.548;18.828;2022-12-18T08:58:17;19.85;;;8.75;;
51238;SDS011;38154;47.548;18.828;2022-12-18T09:00:43;26.93;;;11.33;;
51238;SDS011;38154;47.548;18.828;2022-12-18T09:03:16;25.50;;;10.53;;
51238;SDS011;38154;47.548;18.828;2022-12-18T09:05:43;32.63;;;12.82;;
51238;SDS011;38154;47.548;18.828;2022-12-18T09:08:11;50.05;;;15.13;;
51238;SDS011;38154;47.548;18.828;2022-12-18T09:10:43;54.45;;;16.85;;
51238;SDS011;38154;47.548;18.828;2022-12-18T09:13:11;60.50;;;19.02;;
51238;SDS011;38154;47.548;18.828;2022-12-18T09:15:47;45.83;;;15.75;;
51238;SDS011;38154;47.548;18.828;2022-12-18T09:18:17;44.05;;;14.90;;
51238;SDS011;38154;47.548;18.828;2022-12-18T09:20:44;35.63;;;11.93;;
51238;SDS011;38154;47.548;18.828;2022-12-18T09:23:10;30.00;;;11.02;;
51238;SDS011;38154;47.548;18.828;2022-12-18T09:25:36;32.85;;;11.40;;
51238;SDS011;38154;47.548;18.828;2022-12-18T09:28:04;33.60;;;13.60;;
51238;SDS011;38154;47.548;18.828;2022-12-18T09:30:32;26.05;;;11.45;;
51238;SDS011;38154;47.548;18.828;2022-12-18T09:32:59;30.45;;;10.68;;
51238;SDS011;38154;47.548;18.828;2022-12-18T09:35:25;26.17;;;12.02;;
51238;SDS011;38154;47.548;18.828;2022-12-18T09:37:53;25.17;;;11.80;;
51238;SDS011;38154;47.548;18.828;2022-12-18T09:40:20;23.10;;;10.60;;
51238;SDS011;38154;47.548;18.828;2022-12-18T09:42:51;31.73;;;13.50;;
51238;SDS011;38154;47.548;18.828;2022-12-18T09:45:20;36.70;;;12.95;;
51238;SDS011;38154;47.548;18.828;2022-12-18T09:47:47;28.87;;;11.40;;
51238;SDS011;38154;47.548;18.828;2022-12-18T09:50:26;27.77;;;10.98;;
51238;SDS011;38154;47.548;18.828;2022-12-18T09:53:02;43.40;;;17.00;;
51238;SDS011;38154;47.548;18.828;2022-12-18T09:55:36;32.92;;;14.48;;
51238;SDS011;38154;47.548;18.828;2022-12-18T09:58:07;26.58;;;11.80;;
51238;SDS011;38154;47.548;18.828;2022-12-18T10:00:42;38.15;;;15.07;;
51238;SDS011;38154;47.548;18.828;2022-12-18T10:19:25;25.33;;;10.77;;
51238;SDS011;38154;47.548;18.828;2022-12-18T10:27:14;26.98;;;9.65;;
51238;SDS011;38154;47.548;18.828;2022-12-18T10:29:42;33.83;;;11.68;;
51238;SDS011;38154;47.548;18.828;2022-12-18T10:32:13;29.98;;;9.13;;
51238;SDS011;38154;47.548;18.828;2022-12-18T10:34:43;22.15;;;8.00;;
51238;SDS011;38154;47.548;18.828;2022-12-18T10:37:13;32.13;;;9.90;;
51238;SDS011;38154;47.548;18.828;2022-12-18T10:39:44;17.65;;;5.87;;
51238;SDS011;38154;47.548;18.828;2022-12-18T10:42:16;20.48;;;8.43;;
51238;SDS011;38154;47.548;18.828;2022-12-18T10:44:43;21.02;;;6.20;;
51238;SDS011;38154;47.548;18.828;2022-12-18T10:47:14;18.20;;;7.87;;
51238;SDS011;38154;47.548;18.828;2022-12-18T10:49:48;22.83;;;10.68;;
51238;SDS011;38154;47.548;18.828;2022-12-18T10:52:20;31.42;;;8.88;;
51238;SDS011;38154;47.548;18.828;2022-12-18T11:02:54;28.87;;;10.63;;
51238;SDS011;38154;47.548;18.828;2022-12-18T11:07:55;17.60;;;8.25;;
51238;SDS011;38154;47.548;18.828;2022-12-18T11:10:23;23.58;;;9.68;;
51238;SDS011;38154;47.548;18.828;2022-12-18T11:12:53;23.73;;;9.32;;
51238;SDS011;38154;47.548;18.828;2022-12-18T11:15:24;18.87;;;8.40;;
51238;SDS011;38154;47.548;18.828;2022-12-18T11:17:54;20.17;;;8.43;;
51238;SDS011;38154;47.548;18.828;2022-12-18T11:20:33;27.05;;;9.48;;
51238;SDS011;38154;47.548;18.828;2022-12-18T11:23:01;25.92;;;10.05;;
51238;SDS011;38154;47.548;18.828;2022-12-18T11:25:29;27.35;;;12.25;;
51238;SDS011;38154;47.548;18.828;2022-12-18T11:27:58;39.92;;;13.27;;
51238;SDS011;38154;47.548;18.828;2022-12-18T11:30:27;21.42;;;10.55;;
51238;SDS011;38154;47.548;18.828;2022-12-18T11:33:10;31.37;;;13.38;;
51238;SDS011;38154;47.548;18.828;2022-12-18T11:35:50;37.92;;;11.85;;
51238;SDS011;38154;47.548;18.828;2022-12-18T11:38:26;25.55;;;10.60;;
51238;SDS011;38154;47.548;18.828;2022-12-18T11:40:56;32.22;;;13.18;;
51238;SDS011;38154;47.548;18.828;2022-12-18T11:43:27;31.08;;;11.68;;
51238;SDS011;38154;47.548;18.828;2022-12-18T11:46:45;36.53;;;12.68;;
51238;SDS011;38154;47.548;18.828;2022-12-18T11:49:13;21.85;;;8.38;;
51238;SDS011;38154;47.548;18.828;2022-12-18T11:51:57;37.05;;;10.38;;
51238;SDS011;38154;47.548;18.828;2022-12-18T11:54:29;35.13;;;10.63;;
51238;SDS011;38154;47.548;18.828;2022-12-18T12:02:42;25.67;;;8.43;;
51238;SDS011;38154;47.548;18.828;2022-12-18T12:05:36;16.10;;;6.97;;
51238;SDS011;38154;47.548;18.828;2022-12-18T12:11:32;28.92;;;9.43;;
51238;SDS011;38154;47.548;18.828;2022-12-18T12:16:57;19.92;;;6.72;;
51238;SDS011;38154;47.548;18.828;2022-12-18T12:19:36;14.25;;;6.70;;
51238;SDS011;38154;47.548;18.828;2022-12-18T12:39:08;27.67;;;8.38;;
51238;SDS011;38154;47.548;18.828;2022-12-18T12:41:39;26.10;;;9.35;;
51238;SDS011;38154;47.548;18.828;2022-12-18T12:44:35;24.42;;;9.07;;
51238;SDS011;38154;47.548;18.828;2022-12-18T12:47:14;15.20;;;7.30;;
51238;SDS011;38154;47.548;18.828;2022-12-18T12:49:44;19.92;;;9.35;;
51238;SDS011;38154;47.548;18.828;2022-12-18T12:55:20;16.98;;;8.27;;
51238;SDS011;38154;47.548;18.828;2022-12-18T12:57:51;17.17;;;7.12;;
51238;SDS011;38154;47.548;18.828;2022-12-18T13:00:20;24.80;;;8.73;;
51238;SDS011;38154;47.548;18.828;2022-12-18T13:02:59;18.92;;;7.32;;
51238;SDS011;38154;47.548;18.828;2022-12-18T13:05:46;27.25;;;9.52;;
51238;SDS011;38154;47.548;18.828;2022-12-18T13:10:54;29.15;;;10.93;;
51238;SDS011;38154;47.548;18.828;2022-12-18T13:16:18;29.98;;;10.60;;
51238;SDS011;38154;47.548;18.828;2022-12-18T13:18:52;25.17;;;8.43;;
51238;SDS011;38154;47.548;18.828;2022-12-18T13:21:21;25.92;;;8.57;;
51238;SDS011;38154;47.548;18.828;2022-12-18T13:23:50;24.77;;;7.93;;
51238;SDS011;38154;47.548;18.828;2022-12-18T13:31:11;21.75;;;8.98;;
51238;SDS011;38154;47.548;18.828;2022-12-18T13:36:41;25.08;;;8.65;;
51238;SDS011;38154;47.548;18.828;2022-12-18T13:41:42;31.48;;;11.77;;
51238;SDS011;38154;47.548;18.828;2022-12-18T13:46:58;41.37;;;14.25;;
51238;SDS011;38154;47.548;18.828;2022-12-18T13:49:38;28.48;;;13.43;;
51238;SDS011;38154;47.548;18.828;2022-12-18T13:52:16;36.50;;;11.20;;
51238;SDS011;38154;47.548;18.828;2022-12-18T13:54:45;31.05;;;11.57;;
51238;SDS011;38154;47.548;18.828;2022-12-18T13:57:26;35.72;;;12.10;;
51238;SDS011;38154;47.548;18.828;2022-12-18T13:59:53;31.52;;;11.93;;
51238;SDS011;38154;47.548;18.828;2022-12-18T14:02:24;25.60;;;10.98;;
51238;SDS011;38154;47.548;18.828;2022-12-18T14:04:51;36.25;;;11.68;;
51238;SDS011;38154;47.548;18.828;2022-12-18T14:09:48;23.00;;;10.32;;
51238;SDS011;38154;47.548;18.828;2022-12-18T14:12:26;51.05;;;15.35;;
51238;SDS011;38154;47.548;18.828;2022-12-18T14:20:45;24.83;;;10.10;;
51238;SDS011;38154;47.548;18.828;2022-12-18T14:26:20;22.80;;;10.32;;
51238;SDS011;38154;47.548;18.828;2022-12-18T14:28:55;29.70;;;10.23;;
51238;SDS011;38154;47.548;18.828;2022-12-18T14:31:22;20.10;;;9.40;;
51238;SDS011;38154;47.548;18.828;2022-12-18T14:33:52;20.27;;;8.80;;
51238;SDS011;38154;47.548;18.828;2022-12-18T14:36:20;26.48;;;11.70;;
51238;SDS011;38154;47.548;18.828;2022-12-18T14:38:49;23.38;;;10.75;;
51238;SDS011;38154;47.548;18.828;2022-12-18T14:41:17;23.75;;;10.27;;
51238;SDS011;38154;47.548;18.828;2022-12-18T14:43:45;28.48;;;8.65;;
51238;SDS011;38154;47.548;18.828;2022-12-18T14:46:29;26.55;;;9.55;;
51238;SDS011;38154;47.548;18.828;2022-12-18T14:48:58;26.55;;;9.68;;
51238;SDS011;38154;47.548;18.828;2022-12-18T14:51:27;24.23;;;10.00;;
51238;SDS011;38154;47.548;18.828;2022-12-18T14:53:56;38.30;;;9.38;;
51238;SDS011;38154;47.548;18.828;2022-12-18T14:56:26;15.38;;;7.62;;
51238;SDS011;38154;47.548;18.828;2022-12-18T14:59:28;19.15;;;9.10;;
51238;SDS011;38154;47.548;18.828;2022-12-18T15:04:39;26.75;;;10.40;;
51238;SDS011;38154;47.548;18.828;2022-12-18T15:09:47;39.17;;;9.82;;
51238;SDS011;38154;47.548;18.828;2022-12-18T15:12:49;29.63;;;10.23;;
51238;SDS011;38154;47.548;18.828;2022-12-18T15:23:12;42.58;;;16.42;;
51238;SDS011;38154;47.548;18.828;2022-12-18T15:26:08;24.87;;;9.25;;
51238;SDS011;38154;47.548;18.828;2022-12-18T15:28:36;38.85;;;14.23;;
51238;SDS011;38154;47.548;18.828;2022-12-18T15:31:04;37.85;;;14.77;;
51238;SDS011;38154;47.548;18.828;2022-12-18T15:33:31;31.58;;;14.48;;
51238;SDS011;38154;47.548;18.828;2022-12-18T15:36:04;38.95;;;14.80;;
51238;SDS011;38154;47.548;18.828;2022-12-18T15:38:35;25.48;;;10.65;;
51238;SDS011;38154;47.548;18.828;2022-12-18T15:41:01;31.25;;;10.05;;
51238;SDS011;38154;47.548;18.828;2022-12-18T15:43:27;22.67;;;10.02;;
51238;SDS011;38154;47.548;18.828;2022-12-18T15:46:06;31.20;;;9.50;;
51238;SDS011;38154;47.548;18.828;2022-12-18T15:48:40;19.33;;;8.70;;
51238;SDS011;38154;47.548;18.828;2022-12-18T15:51:15;16.52;;;7.78;;
51238;SDS011;38154;47.548;18.828;2022-12-18T15:53:45;21.33;;;7.43;;
51238;SDS011;38154;47.548;18.828;2022-12-18T15:56:14;23.52;;;8.35;;
51238;SDS011;38154;47.548;18.828;2022-12-18T15:59:00;13.57;;;7.10;;
51238;SDS011;38154;47.548;18.828;2022-12-18T16:03:53;15.85;;;7.70;;
51238;SDS011;38154;47.548;18.828;2022-12-18T16:06:20;11.48;;;5.90;;
51238;SDS011;38154;47.548;18.828;2022-12-18T16:08:47;21.90;;;8.75;;
51238;SDS011;38154;47.548;18.828;2022-12-18T16:11:21;11.32;;;7.25;;
51238;SDS011;38154;47.548;18.828;2022-12-18T16:16:49;13.50;;;5.62;;
51238;SDS011;38154;47.548;18.828;2022-12-18T16:19:17;14.82;;;7.20;;
51238;SDS011;38154;47.548;18.828;2022-12-18T16:21:44;12.45;;;5.72;;
51238;SDS011;38154;47.548;18.828;2022-12-18T16:24:18;13.13;;;5.12;;
51238;SDS011;38154;47.548;18.828;2022-12-18T16:26:49;14.68;;;5.07;;
51238;SDS011;38154;47.548;18.828;2022-12-18T16:29:19;11.65;;;5.45;;
51238;SDS011;38154;47.548;18.828;2022-12-18T16:31:50;13.75;;;6.22;;
51238;SDS011;38154;47.548;18.828;2022-12-18T16:36:50;17.85;;;7.32;;
51238;SDS011;38154;47.548;18.828;2022-12-18T16:39:17;11.60;;;5.85;;
51238;SDS011;38154;47.548;18.828;2022-12-18T16:41:43;10.32;;;5.70;;
51238;SDS011;38154;47.548;18.828;2022-12-18T16:44:09;23.50;;;7.18;;
51238;SDS011;38154;47.548;18.828;2022-12-18T16:46:36;16.15;;;4.62;;
51238;SDS011;38154;47.548;18.828;2022-12-18T16:49:02;13.95;;;4.95;;
51238;SDS011;38154;47.548;18.828;2022-12-18T16:51:29;17.05;;;7.25;;
51238;SDS011;38154;47.548;18.828;2022-12-18T16:53:55;17.70;;;7.20;;
51238;SDS011;38154;47.548;18.828;2022-12-18T16:56:21;14.40;;;5.65;;
51238;SDS011;38154;47.548;18.828;2022-12-18T16:58:51;8.52;;;4.53;;
51238;SDS011;38154;47.548;18.828;2022-12-18T17:01:18;12.20;;;6.80;;
51238;SDS011;38154;47.548;18.828;2022-12-18T17:03:44;13.18;;;8.10;;
51238;SDS011;38154;47.548;18.828;2022-12-18T17:06:09;20.70;;;7.97;;
51238;SDS011;38154;47.548;18.828;2022-12-18T17:08:36;18.45;;;7.12;;
51238;SDS011;38154;47.548;18.828;2022-12-18T17:11:05;23.48;;;7.43;;
51238;SDS011;38154;47.548;18.828;2022-12-18T17:13:32;17.27;;;9.48;;
51238;SDS011;38154;47.548;18.828;2022-12-18T17:16:02;22.75;;;8.00;;
51238;SDS011;38154;47.548;18.828;2022-12-18T17:18:29;17.65;;;9.13;;
51238;SDS011;38154;47.548;18.828;2022-12-18T17:21:02;16.20;;;8.25;;